Terminal Aerodrome Forecast
Issued by NWS

Home | Current Version | Previous Version | Graphics & Text | Print | Product List | Glossary On
Versions: 1 2 3 4 5 6 7 8 9 10 11 12 13 14 15 16 17 18 19
000
FTUS43 KBIS 160151 AAA
TAFMOT
TAF AMD
KMOT 160151Z 1602/1624 29011KT P6SM BKN025 OVC080
     FM161200 29012KT P6SM OVC015
     FM161800 30011KT P6SM SCT030
     FM162100 29010KT P6SM SCT250=

USA.gov is the U.S. government's official web portal to all federal, state and local government web resources and services.